Bellview, Louisiana
Current Conditions -  °F | °C
As of 7:53 PM on Tuesday 21 Oct 2014 (Local Time) from KMLU Reporting Station
Clear Clear  
Wind Chill: 65°   Ceiling: Unl
Heat Index: 65°   Visibility: 10mi
Dew Point: 61°   Wind: 0mph
Humidity: 87%   Direction: NA
Pressure: 30.05"   Gusts: NA
Location:  32.1631°N, 92.1971°W
Report Text: KMLU 220053Z 00000KT 10SM CLR 18/16 A3005 RMK AO2 SLP173 T01830161
Loading
Personal Weather Stations






























Interactive Weather Map
Tropical Storm Tracking
New forecast layout! Learn more

10-Day Weather Forecast

Advertisements
Track Severe Weather on mobile